sensor_id;sensor_type;location;lat;lon;timestamp;temperature;humidity
6379;DHT22;3222;48.858;10.128;2024-02-16T00:00:25;11.00;99.90
6379;DHT22;3222;48.858;10.128;2024-02-16T00:02:51;10.90;99.90
6379;DHT22;3222;48.858;10.128;2024-02-16T00:05:17;11.00;99.90
6379;DHT22;3222;48.858;10.128;2024-02-16T00:07:42;11.00;99.90
6379;DHT22;3222;48.858;10.128;2024-02-16T00:10:09;11.00;99.90
6379;DHT22;3222;48.858;10.128;2024-02-16T00:12:35;11.00;99.90
6379;DHT22;3222;48.858;10.128;2024-02-16T00:15:03;11.00;99.90
6379;DHT22;3222;48.858;10.128;2024-02-16T00:17:29;11.00;99.90
6379;DHT22;3222;48.858;10.128;2024-02-16T00:19:58;11.10;99.90
6379;DHT22;3222;48.858;10.128;2024-02-16T00:22:24;11.10;99.90
6379;DHT22;3222;48.858;10.128;2024-02-16T00:24:49;11.10;99.90
6379;DHT22;3222;48.858;10.128;2024-02-16T00:27:15;11.10;99.90
6379;DHT22;3222;48.858;10.128;2024-02-16T00:29:42;11.10;99.90
6379;DHT22;3222;48.858;10.128;2024-02-16T00:32:08;11.10;99.90
6379;DHT22;3222;48.858;10.128;2024-02-16T00:34:37;11.10;99.90
6379;DHT22;3222;48.858;10.128;2024-02-16T00:37:03;11.10;99.90
6379;DHT22;3222;48.858;10.128;2024-02-16T00:39:37;11.10;99.90
6379;DHT22;3222;48.858;10.128;2024-02-16T00:42:05;11.00;99.90
6379;DHT22;3222;48.858;10.128;2024-02-16T00:44:31;11.00;99.90
6379;DHT22;3222;48.858;10.128;2024-02-16T00:46:57;10.90;99.90
6379;DHT22;3222;48.858;10.128;2024-02-16T00:49:22;10.80;99.90
6379;DHT22;3222;48.858;10.128;2024-02-16T00:51:48;10.80;99.90
6379;DHT22;3222;48.858;10.128;2024-02-16T00:54:16;10.70;99.90
6379;DHT22;3222;48.858;10.128;2024-02-16T00:56:42;10.70;99.90
6379;DHT22;3222;48.858;10.128;2024-02-16T00:59:08;10.60;99.90
6379;DHT22;3222;48.858;10.128;2024-02-16T01:01:38;10.70;99.90
6379;DHT22;3222;48.858;10.128;2024-02-16T01:04:04;10.70;99.90
6379;DHT22;3222;48.858;10.128;2024-02-16T01:06:29;10.70;99.90
6379;DHT22;3222;48.858;10.128;2024-02-16T01:08:55;10.60;99.90
6379;DHT22;3222;48.858;10.128;2024-02-16T01:11:22;10.50;99.90
6379;DHT22;3222;48.858;10.128;2024-02-16T01:13:47;10.50;99.90
6379;DHT22;3222;48.858;10.128;2024-02-16T01:16:13;10.50;99.90
6379;DHT22;3222;48.858;10.128;2024-02-16T01:18:39;10.50;99.90
6379;DHT22;3222;48.858;10.128;2024-02-16T01:21:05;10.60;99.90
6379;DHT22;3222;48.858;10.128;2024-02-16T01:23:31;10.50;99.90
6379;DHT22;3222;48.858;10.128;2024-02-16T01:25:58;10.50;99.90
6379;DHT22;3222;48.858;10.128;2024-02-16T01:28:23;10.40;99.90
6379;DHT22;3222;48.858;10.128;2024-02-16T01:30:49;10.40;99.90
6379;DHT22;3222;48.858;10.128;2024-02-16T01:33:16;10.40;99.90
6379;DHT22;3222;48.858;10.128;2024-02-16T01:35:41;10.40;99.90
6379;DHT22;3222;48.858;10.128;2024-02-16T01:38:07;10.40;99.90
6379;DHT22;3222;48.858;10.128;2024-02-16T01:40:32;10.40;99.90
6379;DHT22;3222;48.858;10.128;2024-02-16T01:42:58;10.40;99.90
6379;DHT22;3222;48.858;10.128;2024-02-16T01:45:24;10.30;99.90
6379;DHT22;3222;48.858;10.128;2024-02-16T01:47:51;10.30;99.90
6379;DHT22;3222;48.858;10.128;2024-02-16T01:50:18;10.30;99.90
6379;DHT22;3222;48.858;10.128;2024-02-16T01:52:45;10.30;99.90
6379;DHT22;3222;48.858;10.128;2024-02-16T01:55:12;10.30;99.90
6379;DHT22;3222;48.858;10.128;2024-02-16T01:57:44;10.30;99.90
6379;DHT22;3222;48.858;10.128;2024-02-16T02:00:11;10.20;99.90
6379;DHT22;3222;48.858;10.128;2024-02-16T02:02:37;10.30;99.90
6379;DHT22;3222;48.858;10.128;2024-02-16T02:05:03;10.30;99.90
6379;DHT22;3222;48.858;10.128;2024-02-16T02:07:29;10.30;99.90
6379;DHT22;3222;48.858;10.128;2024-02-16T02:09:55;10.40;99.90
6379;DHT22;3222;48.858;10.128;2024-02-16T02:12:21;10.70;99.90
6379;DHT22;3222;48.858;10.128;2024-02-16T02:14:48;10.60;99.90
6379;DHT22;3222;48.858;10.128;2024-02-16T02:17:14;10.40;99.90
6379;DHT22;3222;48.858;10.128;2024-02-16T02:19:40;10.30;99.90
6379;DHT22;3222;48.858;10.128;2024-02-16T02:22:17;10.20;99.90
6379;DHT22;3222;48.858;10.128;2024-02-16T02:24:44;10.20;99.90
6379;DHT22;3222;48.858;10.128;2024-02-16T02:27:11;10.10;99.90
6379;DHT22;3222;48.858;10.128;2024-02-16T02:29:37;10.10;99.90
6379;DHT22;3222;48.858;10.128;2024-02-16T02:32:03;10.10;99.90
6379;DHT22;3222;48.858;10.128;2024-02-16T02:34:29;10.10;99.90
6379;DHT22;3222;48.858;10.128;2024-02-16T02:36:55;10.10;99.90
6379;DHT22;3222;48.858;10.128;2024-02-16T02:39:20;10.10;99.90
6379;DHT22;3222;48.858;10.128;2024-02-16T02:41:46;10.10;99.90
6379;DHT22;3222;48.858;10.128;2024-02-16T02:44:12;10.10;99.90
6379;DHT22;3222;48.858;10.128;2024-02-16T02:46:38;10.10;99.90
6379;DHT22;3222;48.858;10.128;2024-02-16T02:49:04;10.10;99.90
6379;DHT22;3222;48.858;10.128;2024-02-16T02:51:30;10.10;99.90
6379;DHT22;3222;48.858;10.128;2024-02-16T02:53:56;10.10;99.90
6379;DHT22;3222;48.858;10.128;2024-02-16T02:56:21;10.10;99.90
6379;DHT22;3222;48.858;10.128;2024-02-16T02:58:47;10.00;99.90
6379;DHT22;3222;48.858;10.128;2024-02-16T03:01:13;10.00;99.90
6379;DHT22;3222;48.858;10.128;2024-02-16T03:03:40;10.00;99.90
6379;DHT22;3222;48.858;10.128;2024-02-16T03:06:07;10.00;99.90
6379;DHT22;3222;48.858;10.128;2024-02-16T03:08:33;9.90;99.90
6379;DHT22;3222;48.858;10.128;2024-02-16T03:10:59;9.90;99.90
6379;DHT22;3222;48.858;10.128;2024-02-16T03:13:26;9.90;99.90
6379;DHT22;3222;48.858;10.128;2024-02-16T03:15:52;9.90;99.90
6379;DHT22;3222;48.858;10.128;2024-02-16T03:18:18;9.90;99.90
6379;DHT22;3222;48.858;10.128;2024-02-16T03:20:45;9.80;99.90
6379;DHT22;3222;48.858;10.128;2024-02-16T03:23:14;9.80;99.90
6379;DHT22;3222;48.858;10.128;2024-02-16T03:25:39;9.80;99.90
6379;DHT22;3222;48.858;10.128;2024-02-16T03:28:05;9.80;99.90
6379;DHT22;3222;48.858;10.128;2024-02-16T03:30:33;9.80;99.90
6379;DHT22;3222;48.858;10.128;2024-02-16T03:32:59;9.80;99.90
6379;DHT22;3222;48.858;10.128;2024-02-16T03:35:25;9.90;99.90
6379;DHT22;3222;48.858;10.128;2024-02-16T03:37:51;9.90;99.90
6379;DHT22;3222;48.858;10.128;2024-02-16T03:40:17;9.80;99.90
6379;DHT22;3222;48.858;10.128;2024-02-16T03:42:43;9.80;99.90
6379;DHT22;3222;48.858;10.128;2024-02-16T03:45:09;9.70;99.90
6379;DHT22;3222;48.858;10.128;2024-02-16T03:47:35;9.70;99.90
6379;DHT22;3222;48.858;10.128;2024-02-16T03:50:02;9.60;99.90
6379;DHT22;3222;48.858;10.128;2024-02-16T03:52:27;9.70;99.90
6379;DHT22;3222;48.858;10.128;2024-02-16T03:54:53;9.60;99.90
6379;DHT22;3222;48.858;10.128;2024-02-16T03:57:19;9.60;99.90
6379;DHT22;3222;48.858;10.128;2024-02-16T03:59:45;9.70;99.90
6379;DHT22;3222;48.858;10.128;2024-02-16T04:02:11;9.60;99.90
6379;DHT22;3222;48.858;10.128;2024-02-16T04:04:39;9.60;99.90
6379;DHT22;3222;48.858;10.128;2024-02-16T04:07:05;9.60;99.90
6379;DHT22;3222;48.858;10.128;2024-02-16T04:09:34;9.50;99.90
6379;DHT22;3222;48.858;10.128;2024-02-16T04:12:01;9.60;99.90
6379;DHT22;3222;48.858;10.128;2024-02-16T04:14:27;9.60;99.90
6379;DHT22;3222;48.858;10.128;2024-02-16T04:16:53;9.60;99.90
6379;DHT22;3222;48.858;10.128;2024-02-16T04:19:19;9.70;99.90
6379;DHT22;3222;48.858;10.128;2024-02-16T04:21:44;9.90;99.90
6379;DHT22;3222;48.858;10.128;2024-02-16T04:24:10;9.90;99.90
6379;DHT22;3222;48.858;10.128;2024-02-16T04:26:36;9.80;99.90
6379;DHT22;3222;48.858;10.128;2024-02-16T04:29:03;9.60;99.90
6379;DHT22;3222;48.858;10.128;2024-02-16T04:31:30;9.60;99.90
6379;DHT22;3222;48.858;10.128;2024-02-16T04:33:55;9.60;99.90
6379;DHT22;3222;48.858;10.128;2024-02-16T04:36:21;9.60;99.90
6379;DHT22;3222;48.858;10.128;2024-02-16T04:38:47;9.60;99.90
6379;DHT22;3222;48.858;10.128;2024-02-16T04:41:13;9.50;99.90
6379;DHT22;3222;48.858;10.128;2024-02-16T04:43:38;9.60;99.90
6379;DHT22;3222;48.858;10.128;2024-02-16T04:46:05;9.50;99.90
6379;DHT22;3222;48.858;10.128;2024-02-16T04:48:30;9.50;99.90
6379;DHT22;3222;48.858;10.128;2024-02-16T04:50:57;9.50;99.90
6379;DHT22;3222;48.858;10.128;2024-02-16T04:53:23;9.60;99.90
6379;DHT22;3222;48.858;10.128;2024-02-16T04:55:49;9.50;99.90
6379;DHT22;3222;48.858;10.128;2024-02-16T04:58:15;9.70;99.90
6379;DHT22;3222;48.858;10.128;2024-02-16T05:00:40;9.70;99.90
6379;DHT22;3222;48.858;10.128;2024-02-16T05:03:06;9.70;99.90
6379;DHT22;3222;48.858;10.128;2024-02-16T05:05:32;9.60;99.90
6379;DHT22;3222;48.858;10.128;2024-02-16T05:07:58;9.60;99.90
6379;DHT22;3222;48.858;10.128;2024-02-16T05:10:23;9.60;99.90
6379;DHT22;3222;48.858;10.128;2024-02-16T05:12:49;9.60;99.90
6379;DHT22;3222;48.858;10.128;2024-02-16T05:15:15;9.50;99.90
6379;DHT22;3222;48.858;10.128;2024-02-16T05:17:41;9.50;99.90
6379;DHT22;3222;48.858;10.128;2024-02-16T05:20:11;9.40;99.90
6379;DHT22;3222;48.858;10.128;2024-02-16T05:22:44;9.40;99.90
6379;DHT22;3222;48.858;10.128;2024-02-16T05:25:15;9.50;99.90
6379;DHT22;3222;48.858;10.128;2024-02-16T05:27:41;9.70;99.90
6379;DHT22;3222;48.858;10.128;2024-02-16T05:30:09;9.60;99.90
6379;DHT22;3222;48.858;10.128;2024-02-16T05:32:36;9.50;99.90
6379;DHT22;3222;48.858;10.128;2024-02-16T05:35:06;9.60;99.90
6379;DHT22;3222;48.858;10.128;2024-02-16T05:37:49;9.90;99.90
6379;DHT22;3222;48.858;10.128;2024-02-16T05:40:17;9.80;99.90
6379;DHT22;3222;48.858;10.128;2024-02-16T05:42:53;9.60;99.90
6379;DHT22;3222;48.858;10.128;2024-02-16T05:45:19;9.60;99.90
6379;DHT22;3222;48.858;10.128;2024-02-16T05:47:46;9.50;99.90
6379;DHT22;3222;48.858;10.128;2024-02-16T05:50:13;9.50;99.90
6379;DHT22;3222;48.858;10.128;2024-02-16T05:52:39;9.50;99.90
6379;DHT22;3222;48.858;10.128;2024-02-16T05:55:09;9.40;99.90
6379;DHT22;3222;48.858;10.128;2024-02-16T05:57:35;9.40;99.90
6379;DHT22;3222;48.858;10.128;2024-02-16T06:00:06;9.60;99.90
6379;DHT22;3222;48.858;10.128;2024-02-16T06:02:32;9.60;99.90
6379;DHT22;3222;48.858;10.128;2024-02-16T06:04:59;9.50;99.90
6379;DHT22;3222;48.858;10.128;2024-02-16T06:07:25;9.40;99.90
6379;DHT22;3222;48.858;10.128;2024-02-16T06:09:51;9.40;99.90
6379;DHT22;3222;48.858;10.128;2024-02-16T06:12:17;9.40;99.90
6379;DHT22;3222;48.858;10.128;2024-02-16T06:14:43;9.50;99.90
6379;DHT22;3222;48.858;10.128;2024-02-16T06:17:08;9.40;99.90
6379;DHT22;3222;48.858;10.128;2024-02-16T06:19:35;9.50;99.90
6379;DHT22;3222;48.858;10.128;2024-02-16T06:22:01;9.40;99.90
6379;DHT22;3222;48.858;10.128;2024-02-16T06:24:26;9.40;99.90
6379;DHT22;3222;48.858;10.128;2024-02-16T06:26:53;9.30;99.90
6379;DHT22;3222;48.858;10.128;2024-02-16T06:29:20;9.50;99.90
6379;DHT22;3222;48.858;10.128;2024-02-16T06:31:49;9.60;99.90
6379;DHT22;3222;48.858;10.128;2024-02-16T06:34:15;9.50;99.90
6379;DHT22;3222;48.858;10.128;2024-02-16T06:36:41;9.50;99.90
6379;DHT22;3222;48.858;10.128;2024-02-16T06:39:07;9.40;99.90
6379;DHT22;3222;48.858;10.128;2024-02-16T06:41:35;9.40;99.90
6379;DHT22;3222;48.858;10.128;2024-02-16T06:44:00;9.50;99.90
6379;DHT22;3222;48.858;10.128;2024-02-16T06:46:26;9.50;99.90
6379;DHT22;3222;48.858;10.128;2024-02-16T06:48:55;9.60;99.90
6379;DHT22;3222;48.858;10.128;2024-02-16T06:51:25;9.60;99.90
6379;DHT22;3222;48.858;10.128;2024-02-16T06:53:52;9.70;99.90
6379;DHT22;3222;48.858;10.128;2024-02-16T06:56:18;9.60;99.90
6379;DHT22;3222;48.858;10.128;2024-02-16T06:58:47;9.50;99.90
6379;DHT22;3222;48.858;10.128;2024-02-16T07:01:13;9.50;99.90
6379;DHT22;3222;48.858;10.128;2024-02-16T07:03:40;9.60;99.90
6379;DHT22;3222;48.858;10.128;2024-02-16T07:06:06;9.50;99.90
6379;DHT22;3222;48.858;10.128;2024-02-16T07:08:41;9.50;99.90
6379;DHT22;3222;48.858;10.128;2024-02-16T07:11:07;9.40;99.90
6379;DHT22;3222;48.858;10.128;2024-02-16T07:13:34;9.80;99.90
6379;DHT22;3222;48.858;10.128;2024-02-16T07:16:00;9.70;99.90
6379;DHT22;3222;48.858;10.128;2024-02-16T07:18:26;9.60;99.90
6379;DHT22;3222;48.858;10.128;2024-02-16T07:20:51;9.50;99.90
6379;DHT22;3222;48.858;10.128;2024-02-16T07:23:17;9.50;99.90
6379;DHT22;3222;48.858;10.128;2024-02-16T07:25:43;9.50;99.90
6379;DHT22;3222;48.858;10.128;2024-02-16T07:28:09;9.40;99.90
6379;DHT22;3222;48.858;10.128;2024-02-16T07:30:35;9.40;99.90
6379;DHT22;3222;48.858;10.128;2024-02-16T07:33:05;9.40;99.90
6379;DHT22;3222;48.858;10.128;2024-02-16T07:35:31;9.40;99.90
6379;DHT22;3222;48.858;10.128;2024-02-16T07:37:56;9.40;99.90
6379;DHT22;3222;48.858;10.128;2024-02-16T07:40:22;9.50;99.90
6379;DHT22;3222;48.858;10.128;2024-02-16T07:42:48;9.60;99.90
6379;DHT22;3222;48.858;10.128;2024-02-16T07:45:13;9.50;99.90
6379;DHT22;3222;48.858;10.128;2024-02-16T07:47:42;9.50;99.90
6379;DHT22;3222;48.858;10.128;2024-02-16T07:50:08;9.50;99.90
6379;DHT22;3222;48.858;10.128;2024-02-16T07:52:35;9.50;99.90
6379;DHT22;3222;48.858;10.128;2024-02-16T07:55:01;9.50;99.90
6379;DHT22;3222;48.858;10.128;2024-02-16T07:57:26;9.50;99.90
6379;DHT22;3222;48.858;10.128;2024-02-16T07:59:52;9.60;99.90
6379;DHT22;3222;48.858;10.128;2024-02-16T08:02:18;9.60;99.90
6379;DHT22;3222;48.858;10.128;2024-02-16T08:04:48;9.70;99.90
6379;DHT22;3222;48.858;10.128;2024-02-16T08:07:14;9.70;99.90
6379;DHT22;3222;48.858;10.128;2024-02-16T08:09:45;9.70;99.90
6379;DHT22;3222;48.858;10.128;2024-02-16T08:12:11;9.70;99.90
6379;DHT22;3222;48.858;10.128;2024-02-16T08:14:38;9.80;99.90
6379;DHT22;3222;48.858;10.128;2024-02-16T08:17:05;10.00;99.90
6379;DHT22;3222;48.858;10.128;2024-02-16T08:19:33;10.00;99.90
6379;DHT22;3222;48.858;10.128;2024-02-16T08:22:02;10.10;99.90
6379;DHT22;3222;48.858;10.128;2024-02-16T08:24:36;10.10;99.90
6379;DHT22;3222;48.858;10.128;2024-02-16T08:27:02;10.10;99.90
6379;DHT22;3222;48.858;10.128;2024-02-16T08:29:28;10.10;99.90
6379;DHT22;3222;48.858;10.128;2024-02-16T08:31:54;10.10;99.90
6379;DHT22;3222;48.858;10.128;2024-02-16T08:34:20;10.10;99.90
6379;DHT22;3222;48.858;10.128;2024-02-16T08:36:49;10.30;99.90
6379;DHT22;3222;48.858;10.128;2024-02-16T08:39:16;10.50;99.90
6379;DHT22;3222;48.858;10.128;2024-02-16T08:41:42;10.50;99.90
6379;DHT22;3222;48.858;10.128;2024-02-16T08:44:09;10.60;99.90
6379;DHT22;3222;48.858;10.128;2024-02-16T08:46:38;10.60;99.90
6379;DHT22;3222;48.858;10.128;2024-02-16T08:49:05;10.70;99.90
6379;DHT22;3222;48.858;10.128;2024-02-16T08:51:32;10.80;99.90
6379;DHT22;3222;48.858;10.128;2024-02-16T08:53:58;10.80;99.90
6379;DHT22;3222;48.858;10.128;2024-02-16T08:56:24;10.80;99.90
6379;DHT22;3222;48.858;10.128;2024-02-16T08:58:50;10.80;99.90
6379;DHT22;3222;48.858;10.128;2024-02-16T09:01:16;10.90;99.90
6379;DHT22;3222;48.858;10.128;2024-02-16T09:03:43;11.00;99.90
6379;DHT22;3222;48.858;10.128;2024-02-16T09:06:08;11.10;99.90
6379;DHT22;3222;48.858;10.128;2024-02-16T09:08:34;11.20;99.90
6379;DHT22;3222;48.858;10.128;2024-02-16T09:11:05;11.20;99.90
6379;DHT22;3222;48.858;10.128;2024-02-16T09:13:39;11.20;99.90
6379;DHT22;3222;48.858;10.128;2024-02-16T09:16:05;11.30;99.90
6379;DHT22;3222;48.858;10.128;2024-02-16T09:18:30;11.40;99.90
6379;DHT22;3222;48.858;10.128;2024-02-16T09:20:56;11.40;99.90
6379;DHT22;3222;48.858;10.128;2024-02-16T09:23:22;11.50;99.90
6379;DHT22;3222;48.858;10.128;2024-02-16T09:25:47;11.50;99.90
6379;DHT22;3222;48.858;10.128;2024-02-16T09:28:14;11.60;99.90
6379;DHT22;3222;48.858;10.128;2024-02-16T09:30:40;11.70;99.90
6379;DHT22;3222;48.858;10.128;2024-02-16T09:33:06;11.80;99.90
6379;DHT22;3222;48.858;10.128;2024-02-16T09:35:32;11.80;99.90
6379;DHT22;3222;48.858;10.128;2024-02-16T09:37:58;11.70;99.90
6379;DHT22;3222;48.858;10.128;2024-02-16T09:40:24;11.80;99.90
6379;DHT22;3222;48.858;10.128;2024-02-16T09:42:50;11.70;99.90
6379;DHT22;3222;48.858;10.128;2024-02-16T09:45:16;11.70;99.90
6379;DHT22;3222;48.858;10.128;2024-02-16T09:47:45;11.70;99.90
6379;DHT22;3222;48.858;10.128;2024-02-16T09:50:15;11.70;99.90
6379;DHT22;3222;48.858;10.128;2024-02-16T09:52:46;11.80;99.90
6379;DHT22;3222;48.858;10.128;2024-02-16T09:55:13;11.70;99.90
6379;DHT22;3222;48.858;10.128;2024-02-16T09:57:39;11.80;99.90
6379;DHT22;3222;48.858;10.128;2024-02-16T10:00:05;11.80;99.90
6379;DHT22;3222;48.858;10.128;2024-02-16T10:02:42;11.90;99.90
6379;DHT22;3222;48.858;10.128;2024-02-16T10:05:20;12.00;99.90
6379;DHT22;3222;48.858;10.128;2024-02-16T10:07:46;12.00;99.90
6379;DHT22;3222;48.858;10.128;2024-02-16T10:10:24;12.00;99.90
6379;DHT22;3222;48.858;10.128;2024-02-16T10:13:00;12.10;99.90
6379;DHT22;3222;48.858;10.128;2024-02-16T10:15:26;12.00;99.90
6379;DHT22;3222;48.858;10.128;2024-02-16T10:18:02;12.00;99.90
6379;DHT22;3222;48.858;10.128;2024-02-16T10:20:29;12.10;99.90
6379;DHT22;3222;48.858;10.128;2024-02-16T10:23:11;12.00;99.90
6379;DHT22;3222;48.858;10.128;2024-02-16T10:25:39;12.00;99.90
6379;DHT22;3222;48.858;10.128;2024-02-16T10:28:08;12.00;99.90
6379;DHT22;3222;48.858;10.128;2024-02-16T10:30:38;12.10;99.90
6379;DHT22;3222;48.858;10.128;2024-02-16T10:33:08;12.20;99.90
6379;DHT22;3222;48.858;10.128;2024-02-16T10:35:35;12.20;99.90
6379;DHT22;3222;48.858;10.128;2024-02-16T10:38:02;12.20;99.90
6379;DHT22;3222;48.858;10.128;2024-02-16T10:40:41;12.20;99.90
6379;DHT22;3222;48.858;10.128;2024-02-16T10:43:08;12.20;99.90
6379;DHT22;3222;48.858;10.128;2024-02-16T10:45:39;12.20;99.90
6379;DHT22;3222;48.858;10.128;2024-02-16T10:48:06;12.20;99.90
6379;DHT22;3222;48.858;10.128;2024-02-16T10:50:34;12.20;99.90
6379;DHT22;3222;48.858;10.128;2024-02-16T10:53:15;12.10;99.90
6379;DHT22;3222;48.858;10.128;2024-02-16T10:55:43;12.20;99.90
6379;DHT22;3222;48.858;10.128;2024-02-16T10:58:11;12.20;99.90
6379;DHT22;3222;48.858;10.128;2024-02-16T11:00:48;12.20;99.90
6379;DHT22;3222;48.858;10.128;2024-02-16T11:03:16;12.20;99.90
6379;DHT22;3222;48.858;10.128;2024-02-16T11:05:42;12.30;99.90
6379;DHT22;3222;48.858;10.128;2024-02-16T11:08:23;12.30;99.90
6379;DHT22;3222;48.858;10.128;2024-02-16T11:10:59;12.30;99.90
6379;DHT22;3222;48.858;10.128;2024-02-16T11:13:27;12.20;99.90
6379;DHT22;3222;48.858;10.128;2024-02-16T11:16:03;12.20;99.90
6379;DHT22;3222;48.858;10.128;2024-02-16T11:18:32;12.30;99.90
6379;DHT22;3222;48.858;10.128;2024-02-16T11:21:02;12.40;99.90
6379;DHT22;3222;48.858;10.128;2024-02-16T11:23:30;12.30;99.90
6379;DHT22;3222;48.858;10.128;2024-02-16T11:26:08;12.30;99.90
6379;DHT22;3222;48.858;10.128;2024-02-16T11:28:37;12.40;99.90
6379;DHT22;3222;48.858;10.128;2024-02-16T11:31:03;12.40;99.90
6379;DHT22;3222;48.858;10.128;2024-02-16T11:33:30;12.40;99.90
6379;DHT22;3222;48.858;10.128;2024-02-16T11:36:01;12.40;99.90
6379;DHT22;3222;48.858;10.128;2024-02-16T11:38:27;12.40;99.90
6379;DHT22;3222;48.858;10.128;2024-02-16T11:40:58;12.50;99.90
6379;DHT22;3222;48.858;10.128;2024-02-16T11:43:24;12.50;99.90
6379;DHT22;3222;48.858;10.128;2024-02-16T11:45:51;12.60;99.90
6379;DHT22;3222;48.858;10.128;2024-02-16T11:48:24;12.60;99.90
6379;DHT22;3222;48.858;10.128;2024-02-16T11:51:03;12.60;99.90
6379;DHT22;3222;48.858;10.128;2024-02-16T11:53:30;12.60;99.90
6379;DHT22;3222;48.858;10.128;2024-02-16T11:55:56;12.70;99.90
6379;DHT22;3222;48.858;10.128;2024-02-16T11:58:22;12.80;99.90
6379;DHT22;3222;48.858;10.128;2024-02-16T12:00:49;12.80;99.90
6379;DHT22;3222;48.858;10.128;2024-02-16T12:03:25;12.80;99.90
6379;DHT22;3222;48.858;10.128;2024-02-16T12:05:57;12.80;99.90
6379;DHT22;3222;48.858;10.128;2024-02-16T12:08:24;12.80;99.90
6379;DHT22;3222;48.858;10.128;2024-02-16T12:10:51;12.80;99.90
6379;DHT22;3222;48.858;10.128;2024-02-16T12:13:20;12.80;99.90
6379;DHT22;3222;48.858;10.128;2024-02-16T12:15:50;12.80;99.90
6379;DHT22;3222;48.858;10.128;2024-02-16T12:21:05;13.00;99.90
6379;DHT22;3222;48.858;10.128;2024-02-16T12:23:32;12.90;99.90
6379;DHT22;3222;48.858;10.128;2024-02-16T12:26:01;12.90;99.90
6379;DHT22;3222;48.858;10.128;2024-02-16T12:28:28;12.80;99.90
6379;DHT22;3222;48.858;10.128;2024-02-16T12:30:57;12.90;99.90
6379;DHT22;3222;48.858;10.128;2024-02-16T12:33:24;12.80;99.90
6379;DHT22;3222;48.858;10.128;2024-02-16T12:35:50;12.80;99.90
6379;DHT22;3222;48.858;10.128;2024-02-16T12:38:16;12.80;99.90
6379;DHT22;3222;48.858;10.128;2024-02-16T12:40:48;12.80;99.90
6379;DHT22;3222;48.858;10.128;2024-02-16T12:43:14;12.80;99.90
6379;DHT22;3222;48.858;10.128;2024-02-16T12:45:41;12.90;99.90
6379;DHT22;3222;48.858;10.128;2024-02-16T12:48:07;12.90;99.90
6379;DHT22;3222;48.858;10.128;2024-02-16T12:50:33;12.90;99.90
6379;DHT22;3222;48.858;10.128;2024-02-16T12:52:59;12.90;99.90
6379;DHT22;3222;48.858;10.128;2024-02-16T12:55:25;13.00;99.90
6379;DHT22;3222;48.858;10.128;2024-02-16T12:57:51;13.10;99.90
6379;DHT22;3222;48.858;10.128;2024-02-16T13:00:17;13.00;99.90
6379;DHT22;3222;48.858;10.128;2024-02-16T13:02:43;13.00;99.90
6379;DHT22;3222;48.858;10.128;2024-02-16T13:05:09;13.10;99.90
6379;DHT22;3222;48.858;10.128;2024-02-16T13:07:39;13.10;99.90
6379;DHT22;3222;48.858;10.128;2024-02-16T13:10:07;13.10;99.90
6379;DHT22;3222;48.858;10.128;2024-02-16T13:12:33;13.10;99.90
6379;DHT22;3222;48.858;10.128;2024-02-16T13:14:59;13.20;99.90
6379;DHT22;3222;48.858;10.128;2024-02-16T13:17:24;13.20;99.90
6379;DHT22;3222;48.858;10.128;2024-02-16T13:19:52;13.20;99.90
6379;DHT22;3222;48.858;10.128;2024-02-16T13:22:18;13.30;99.90
6379;DHT22;3222;48.858;10.128;2024-02-16T13:24:43;13.30;99.90
6379;DHT22;3222;48.858;10.128;2024-02-16T13:27:09;13.30;99.90
6379;DHT22;3222;48.858;10.128;2024-02-16T13:29:35;13.40;99.90
6379;DHT22;3222;48.858;10.128;2024-02-16T13:32:01;13.50;99.90
6379;DHT22;3222;48.858;10.128;2024-02-16T13:34:29;13.50;99.90
6379;DHT22;3222;48.858;10.128;2024-02-16T13:36:55;13.60;99.90
6379;DHT22;3222;48.858;10.128;2024-02-16T13:39:21;13.50;99.90
6379;DHT22;3222;48.858;10.128;2024-02-16T13:41:48;13.50;99.90
6379;DHT22;3222;48.858;10.128;2024-02-16T13:44:17;13.50;99.90
6379;DHT22;3222;48.858;10.128;2024-02-16T13:46:45;13.60;99.90
6379;DHT22;3222;48.858;10.128;2024-02-16T13:49:12;13.60;99.90
6379;DHT22;3222;48.858;10.128;2024-02-16T13:51:39;13.60;99.90
6379;DHT22;3222;48.858;10.128;2024-02-16T13:54:05;13.60;99.90
6379;DHT22;3222;48.858;10.128;2024-02-16T13:56:31;13.60;99.90
6379;DHT22;3222;48.858;10.128;2024-02-16T13:58:56;13.60;99.90
6379;DHT22;3222;48.858;10.128;2024-02-16T14:01:22;13.50;99.90
6379;DHT22;3222;48.858;10.128;2024-02-16T14:03:50;13.50;99.90
6379;DHT22;3222;48.858;10.128;2024-02-16T14:06:16;13.60;99.90
6379;DHT22;3222;48.858;10.128;2024-02-16T14:08:42;13.50;99.90
6379;DHT22;3222;48.858;10.128;2024-02-16T14:11:07;13.50;99.90
6379;DHT22;3222;48.858;10.128;2024-02-16T14:13:34;13.50;99.90
6379;DHT22;3222;48.858;10.128;2024-02-16T14:16:00;13.50;99.90
6379;DHT22;3222;48.858;10.128;2024-02-16T14:18:26;13.40;99.90
6379;DHT22;3222;48.858;10.128;2024-02-16T14:20:52;13.50;99.90
6379;DHT22;3222;48.858;10.128;2024-02-16T14:23:17;13.40;99.90
6379;DHT22;3222;48.858;10.128;2024-02-16T14:25:43;13.40;99.90
6379;DHT22;3222;48.858;10.128;2024-02-16T14:28:10;13.40;99.90
6379;DHT22;3222;48.858;10.128;2024-02-16T14:30:36;13.50;99.90
6379;DHT22;3222;48.858;10.128;2024-02-16T14:33:02;13.60;99.90
6379;DHT22;3222;48.858;10.128;2024-02-16T14:35:30;13.50;99.90
6379;DHT22;3222;48.858;10.128;2024-02-16T14:37:57;13.50;99.90
6379;DHT22;3222;48.858;10.128;2024-02-16T14:40:24;13.40;99.90
6379;DHT22;3222;48.858;10.128;2024-02-16T14:42:51;13.40;99.90
6379;DHT22;3222;48.858;10.128;2024-02-16T14:45:16;13.40;99.90
6379;DHT22;3222;48.858;10.128;2024-02-16T14:47:47;13.40;99.90
6379;DHT22;3222;48.858;10.128;2024-02-16T14:50:13;13.40;99.90
6379;DHT22;3222;48.858;10.128;2024-02-16T14:52:39;13.40;99.90
6379;DHT22;3222;48.858;10.128;2024-02-16T14:55:06;13.30;99.90
6379;DHT22;3222;48.858;10.128;2024-02-16T14:57:39;13.30;99.90
6379;DHT22;3222;48.858;10.128;2024-02-16T15:00:09;13.30;99.90
6379;DHT22;3222;48.858;10.128;2024-02-16T15:02:37;13.30;99.90
6379;DHT22;3222;48.858;10.128;2024-02-16T15:05:04;13.30;99.90
6379;DHT22;3222;48.858;10.128;2024-02-16T15:07:30;13.30;99.90
6379;DHT22;3222;48.858;10.128;2024-02-16T15:09:56;13.30;99.90
6379;DHT22;3222;48.858;10.128;2024-02-16T15:12:22;13.30;99.90
6379;DHT22;3222;48.858;10.128;2024-02-16T15:14:50;13.20;99.90
6379;DHT22;3222;48.858;10.128;2024-02-16T15:17:16;13.30;99.90
6379;DHT22;3222;48.858;10.128;2024-02-16T15:19:42;13.20;99.90
6379;DHT22;3222;48.858;10.128;2024-02-16T15:22:08;13.20;99.90
6379;DHT22;3222;48.858;10.128;2024-02-16T15:24:35;13.30;99.90
6379;DHT22;3222;48.858;10.128;2024-02-16T15:27:01;13.20;99.90
6379;DHT22;3222;48.858;10.128;2024-02-16T15:29:29;13.10;99.90
6379;DHT22;3222;48.858;10.128;2024-02-16T15:31:54;13.20;99.90
6379;DHT22;3222;48.858;10.128;2024-02-16T15:34:22;13.10;99.90
6379;DHT22;3222;48.858;10.128;2024-02-16T15:36:48;13.10;99.90
6379;DHT22;3222;48.858;10.128;2024-02-16T15:39:14;13.10;99.90
6379;DHT22;3222;48.858;10.128;2024-02-16T15:41:40;13.10;99.90
6379;DHT22;3222;48.858;10.128;2024-02-16T15:44:05;13.00;99.90
6379;DHT22;3222;48.858;10.128;2024-02-16T15:46:31;12.90;99.90
6379;DHT22;3222;48.858;10.128;2024-02-16T15:48:57;13.00;99.90
6379;DHT22;3222;48.858;10.128;2024-02-16T15:51:23;13.00;99.90
6379;DHT22;3222;48.858;10.128;2024-02-16T15:53:49;13.00;99.90